Terminal Aerodrome Forecast
Issued by NWS Sioux Falls, SD

Home | Current Version | Previous Version | Text Only | Print | Product List | Glossary On
Versions: 1 2 3 4 5 6 7 8 9 10 11 12 13 14 15 16 17 18
079
FTUS43 KFSD 230321 AAB
TAFFSD
TAF AMD
KFSD 230321Z 2303/2324 12008KT P6SM BKN070
     FM230500 12009KT P6SM VCSH BKN070
     FM230900 14006KT P6SM VCTS BKN050CB
     FM231100 13007KT P6SM VCSH BKN090
     FM231300 13009KT P6SM BKN100
     FM231800 16013G21KT P6SM SCT150=

USA.gov is the U.S. government's official web portal to all federal, state and local government web resources and services.